createdAt,value
2018-05-14T00:00:04.325Z,13.75
2018-05-14T00:01:03.430Z,13.687
2018-05-14T00:02:04.065Z,13.687
2018-05-14T00:03:04.137Z,13.687
2018-05-14T00:04:03.732Z,13.687
2018-05-14T00:05:04.238Z,13.562
2018-05-14T00:06:03.721Z,13.562
2018-05-14T00:07:03.487Z,13.562
2018-05-14T00:08:03.778Z,13.562
2018-05-14T00:09:04.534Z,13.437
2018-05-14T00:10:04.121Z,13.375
2018-05-14T00:11:03.966Z,13.375
2018-05-14T00:12:03.773Z,13.375
2018-05-14T00:13:04.213Z,13.437
2018-05-14T00:14:04.207Z,13.437
2018-05-14T00:15:03.503Z,13.437
2018-05-14T00:16:03.968Z,13.375
2018-05-14T00:17:03.726Z,13.312
2018-05-14T00:18:04.175Z,13.375
2018-05-14T00:19:03.980Z,13.375
2018-05-14T00:20:03.411Z,13.437
2018-05-14T00:21:04.569Z,13.437
2018-05-14T00:22:03.685Z,13.437
2018-05-14T00:23:04.178Z,13.375
2018-05-14T00:24:03.601Z,13.312
2018-05-14T00:25:04.059Z,13.312
2018-05-14T00:26:03.328Z,13.375
2018-05-14T00:27:03.944Z,13.437
2018-05-14T00:28:03.484Z,13.375
2018-05-14T00:29:03.780Z,13.375
2018-05-14T00:30:03.544Z,13.312
2018-05-14T00:31:04.507Z,13.312
2018-05-14T00:32:03.942Z,13.25
2018-05-14T00:33:03.348Z,13.25
2018-05-14T00:34:03.826Z,13.187
2018-05-14T00:35:03.529Z,13.125
2018-05-14T00:36:03.979Z,13.125
2018-05-14T00:37:03.688Z,13.062
2018-05-14T00:38:04.222Z,13.062
2018-05-14T00:39:04.192Z,13.125
2018-05-14T00:40:04.300Z,13.125
2018-05-14T00:41:04.818Z,13.125
2018-05-14T00:42:04.028Z,13.187
2018-05-14T00:43:03.521Z,13.187
2018-05-14T00:44:03.982Z,13.25
2018-05-14T00:45:03.575Z,13.187
2018-05-14T00:46:03.915Z,13.125
2018-05-14T00:47:03.860Z,13.187
2018-05-14T00:48:04.241Z,13.187
2018-05-14T00:49:03.773Z,13.187
2018-05-14T00:50:03.469Z,13
2018-05-14T00:51:04.538Z,12.937
2018-05-14T00:52:03.772Z,13
2018-05-14T00:53:04.299Z,13.062
2018-05-14T00:54:03.788Z,13.062
2018-05-14T00:55:03.553Z,13.062
2018-05-14T00:56:04.136Z,13
2018-05-14T00:57:03.540Z,13.062
2018-05-14T00:58:04.005Z,13
2018-05-14T00:59:03.557Z,12.937
2018-05-14T01:00:04.237Z,12.875
2018-05-14T01:01:03.536Z,12.937
2018-05-14T01:02:03.740Z,13.125
2018-05-14T01:03:04.183Z,13.062
2018-05-14T01:04:04.045Z,13
2018-05-14T01:05:03.864Z,12.937
2018-05-14T01:06:03.536Z,13
2018-05-14T01:07:03.405Z,13
2018-05-14T01:08:03.977Z,13.062
2018-05-14T01:09:03.766Z,13.187
2018-05-14T01:10:03.515Z,13.062
2018-05-14T01:11:04.292Z,13.062
2018-05-14T01:12:03.598Z,13.062
2018-05-14T01:13:03.826Z,13.062
2018-05-14T01:14:03.478Z,13
2018-05-14T01:15:04.094Z,13
2018-05-14T01:16:04.081Z,12.875
2018-05-14T01:17:08.098Z,12.937
2018-05-14T01:18:03.999Z,12.875
2018-05-14T01:19:04.028Z,12.812
2018-05-14T01:20:03.754Z,12.875
2018-05-14T01:21:04.990Z,12.812
2018-05-14T01:22:03.477Z,12.812
2018-05-14T01:23:03.789Z,12.875
2018-05-14T01:24:04.331Z,12.937
2018-05-14T01:25:03.842Z,13
2018-05-14T01:26:03.492Z,13
2018-05-14T01:27:03.866Z,13.062
2018-05-14T01:28:03.376Z,13.125
2018-05-14T01:29:03.783Z,13.187
2018-05-14T01:30:04.500Z,13.187
2018-05-14T01:31:04.530Z,13.125
2018-05-14T01:32:03.983Z,13
2018-05-14T01:33:03.555Z,13.062
2018-05-14T01:34:03.655Z,13
2018-05-14T01:35:04.176Z,13.062
2018-05-14T01:36:03.665Z,13
2018-05-14T01:37:04.165Z,12.875
2018-05-14T01:38:03.615Z,12.937
2018-05-14T01:39:04.334Z,13
2018-05-14T01:40:03.716Z,13.062
2018-05-14T01:41:03.380Z,13.062
2018-05-14T01:42:03.763Z,13.125
2018-05-14T01:43:04.150Z,13.062
2018-05-14T01:44:03.663Z,13.062
2018-05-14T01:45:04.203Z,13.062
2018-05-14T01:46:04.686Z,13
2018-05-14T01:47:03.921Z,13.062
2018-05-14T01:48:03.423Z,13
2018-05-14T01:49:03.906Z,13.062
2018-05-14T01:50:03.514Z,13.062
2018-05-14T01:51:03.822Z,13
2018-05-14T01:52:04.117Z,12.937
2018-05-14T01:53:03.510Z,13
2018-05-14T01:54:04.122Z,12.937
2018-05-14T01:55:03.599Z,13.062
2018-05-14T01:56:04.390Z,13
2018-05-14T01:57:03.837Z,12.875
2018-05-14T01:58:04.270Z,12.75
2018-05-14T01:59:03.787Z,12.75
2018-05-14T02:00:04.153Z,12.875
2018-05-14T02:01:03.672Z,12.937
2018-05-14T02:02:03.870Z,12.937
2018-05-14T02:03:03.287Z,12.937
2018-05-14T02:04:03.528Z,12.875
2018-05-14T02:05:04.052Z,12.937
2018-05-14T02:06:04.202Z,12.812
2018-05-14T02:07:03.602Z,12.875
2018-05-14T02:08:04.068Z,12.937
2018-05-14T02:09:04.065Z,12.937
2018-05-14T02:10:03.443Z,13
2018-05-14T02:11:03.740Z,13
2018-05-14T02:12:04.083Z,13
2018-05-14T02:13:03.562Z,12.812
2018-05-14T02:14:04.022Z,12.812
2018-05-14T02:15:04.402Z,12.812
2018-05-14T02:16:03.538Z,12.75
2018-05-14T02:17:04.123Z,12.75
2018-05-14T02:18:03.649Z,12.75
2018-05-14T02:19:03.447Z,12.75
2018-05-14T02:20:04.010Z,12.625
2018-05-14T02:21:04.618Z,12.625
2018-05-14T02:22:03.789Z,12.625
2018-05-14T02:23:04.067Z,12.625
2018-05-14T02:24:03.682Z,12.562
2018-05-14T02:25:04.249Z,12.562
2018-05-14T02:26:03.939Z,12.625
2018-05-14T02:27:03.789Z,12.625
2018-05-14T02:28:03.470Z,12.562
2018-05-14T02:29:03.977Z,12.562
2018-05-14T02:30:03.387Z,12.625
2018-05-14T02:31:04.309Z,12.625
2018-05-14T02:32:04.598Z,12.625
2018-05-14T02:33:03.836Z,12.75
2018-05-14T02:34:04.301Z,12.625
2018-05-14T02:35:03.882Z,12.687
2018-05-14T02:36:05.785Z,12.75
2018-05-14T02:37:04.004Z,12.75
2018-05-14T02:38:03.407Z,12.625
2018-05-14T02:39:03.998Z,12.562
2018-05-14T02:40:03.607Z,12.437
2018-05-14T02:41:04.475Z,12.562
2018-05-14T02:42:03.848Z,12.625
2018-05-14T02:43:03.961Z,12.75
2018-05-14T02:44:04.061Z,12.687
2018-05-14T02:45:03.877Z,12.687
2018-05-14T02:46:04.080Z,12.687
2018-05-14T02:47:03.573Z,12.625
2018-05-14T02:48:04.013Z,12.5
2018-05-14T02:49:04.158Z,12.687
2018-05-14T02:50:03.638Z,12.812
2018-05-14T02:51:04.121Z,12.937
2018-05-14T02:52:03.343Z,12.875
2018-05-14T02:53:03.737Z,12.75
2018-05-14T02:54:04.208Z,12.687
2018-05-14T02:55:03.605Z,12.625
2018-05-14T02:56:04.272Z,12.625
2018-05-14T02:57:03.783Z,12.562
2018-05-14T02:58:04.122Z,12.437
2018-05-14T02:59:03.575Z,12.437
2018-05-14T03:00:09.151Z,12.437
2018-05-14T03:01:03.536Z,12.437
2018-05-14T03:02:03.502Z,12.437
2018-05-14T03:03:03.975Z,12.312
2018-05-14T03:04:03.631Z,12.312
2018-05-14T03:05:04.047Z,12.25
2018-05-14T03:06:04.309Z,12.25
2018-05-14T03:07:03.619Z,12.25
2018-05-14T03:08:03.940Z,12.312
2018-05-14T03:09:03.711Z,12.437
2018-05-14T03:10:03.553Z,12.375
2018-05-14T03:11:03.917Z,12.5
2018-05-14T03:12:03.692Z,12.5
2018-05-14T03:13:04.076Z,12.375
2018-05-14T03:14:03.462Z,12.375
2018-05-14T03:15:04.141Z,12.312
2018-05-14T03:16:03.605Z,12.5
2018-05-14T03:17:04.361Z,12.437
2018-05-14T03:18:03.881Z,12.5
2018-05-14T03:19:03.577Z,12.562
2018-05-14T03:20:04.179Z,12.562
2018-05-14T03:21:03.750Z,12.562
2018-05-14T03:22:04.215Z,12.5
2018-05-14T03:23:03.769Z,12.437
2018-05-14T03:24:03.242Z,12.437
2018-05-14T03:25:03.652Z,12.562
2018-05-14T03:26:03.989Z,12.5
2018-05-14T03:27:03.551Z,12.5
2018-05-14T03:28:03.963Z,12.625
2018-05-14T03:29:03.585Z,12.75
2018-05-14T03:30:03.996Z,12.812
2018-05-14T03:31:03.498Z,12.937
2018-05-14T03:32:04.992Z,13
2018-05-14T03:33:04.244Z,13.062
2018-05-14T03:34:03.284Z,13.125
2018-05-14T03:35:03.464Z,13.312
2018-05-14T03:36:03.920Z,13.5
2018-05-14T03:37:03.481Z,13.75
2018-05-14T03:38:03.826Z,13.812
2018-05-14T03:39:03.770Z,13.937
2018-05-14T03:40:03.822Z,14.125
2018-05-14T03:41:05.142Z,14.25
2018-05-14T03:42:03.973Z,14.375
2018-05-14T03:43:03.377Z,14.5
2018-05-14T03:44:03.746Z,14.625
2018-05-14T03:45:04.259Z,14.75
2018-05-14T03:46:03.727Z,14.937
2018-05-14T03:47:03.466Z,15.062
2018-05-14T03:48:03.974Z,15.25
2018-05-14T03:49:03.344Z,15.437
2018-05-14T03:50:04.093Z,15.625
2018-05-14T03:51:03.484Z,15.875
2018-05-14T03:52:03.989Z,16
2018-05-14T03:53:04.387Z,16.25
2018-05-14T03:54:03.502Z,16.437
2018-05-14T03:55:03.994Z,16.625
2018-05-14T03:56:04.132Z,16.687
2018-05-14T03:57:03.703Z,16.937
2018-05-14T03:58:04.288Z,17.187
2018-05-14T03:59:03.640Z,17.375
2018-05-14T04:00:04.242Z,17.562
2018-05-14T04:01:03.710Z,17.812
2018-05-14T04:02:04.081Z,18
2018-05-14T04:03:03.546Z,18.125
2018-05-14T04:04:03.917Z,18.25
2018-05-14T04:05:03.722Z,18.5
2018-05-14T04:06:04.467Z,18.625
2018-05-14T04:07:03.583Z,18.875
2018-05-14T04:08:03.890Z,19.062
2018-05-14T04:09:03.873Z,19.312
2018-05-14T04:10:03.575Z,19.5
2018-05-14T04:11:04.033Z,19.562
2018-05-14T04:12:03.601Z,19.687
2018-05-14T04:13:04.224Z,19.75
2018-05-14T04:14:03.873Z,20
2018-05-14T04:15:03.985Z,20.125
2018-05-14T04:16:04.188Z,20.25
2018-05-14T04:17:03.920Z,20.437
2018-05-14T04:18:03.931Z,20.625
2018-05-14T04:19:03.459Z,20.75
2018-05-14T04:20:03.872Z,20.937
2018-05-14T04:21:05.021Z,21.187
2018-05-14T04:22:04.165Z,21.187
2018-05-14T04:23:03.645Z,21.25
2018-05-14T04:24:03.556Z,21.375
2018-05-14T04:25:04.526Z,21.437
2018-05-14T04:26:04.226Z,21.5
2018-05-14T04:27:03.963Z,21.437
2018-05-14T04:28:03.614Z,21.5
2018-05-14T04:29:04.203Z,21.687
2018-05-14T04:30:04.017Z,21.875
2018-05-14T04:31:03.799Z,22
2018-05-14T04:32:03.938Z,22.062
2018-05-14T04:33:04.230Z,22.187
2018-05-14T04:34:03.390Z,22.187
2018-05-14T04:35:03.951Z,22.312
2018-05-14T04:36:03.774Z,22.187
2018-05-14T04:37:03.438Z,22.25
2018-05-14T04:38:03.968Z,22.312
2018-05-14T04:39:03.794Z,22.5
2018-05-14T04:40:04.143Z,22.812
2018-05-14T04:41:04.583Z,23.062
2018-05-14T04:42:03.950Z,23.312
2018-05-14T04:43:03.344Z,23.5
2018-05-14T04:44:03.832Z,23.687
2018-05-14T04:45:04.317Z,23.875
2018-05-14T04:46:03.908Z,24
2018-05-14T04:47:03.343Z,24.062
2018-05-14T04:48:04.436Z,24.062
2018-05-14T04:49:03.568Z,23.875
2018-05-14T04:50:03.335Z,24.125
2018-05-14T04:51:05.201Z,24.25
2018-05-14T04:52:04.140Z,24.25
2018-05-14T04:53:03.563Z,24.437
2018-05-14T04:54:03.800Z,24.437
2018-05-14T04:55:03.627Z,24.625
2018-05-14T04:56:04.174Z,24.562
2018-05-14T04:57:03.440Z,24.062
2018-05-14T04:58:03.886Z,24.312
2018-05-14T04:59:03.535Z,24.812
2018-05-14T05:00:04.110Z,24.812
2018-05-14T05:01:04.277Z,24.625
2018-05-14T05:02:03.907Z,25.062
2018-05-14T05:03:03.383Z,25.25
2018-05-14T05:04:03.527Z,25.625
2018-05-14T05:05:04.038Z,25.75
2018-05-14T05:06:03.336Z,25.562
2018-05-14T05:07:04.105Z,25.625
2018-05-14T05:08:03.539Z,25.937
2018-05-14T05:09:04.337Z,26.062
2018-05-14T05:10:03.671Z,26.187
2018-05-14T05:11:04.951Z,25.812
2018-05-14T05:12:04.098Z,25.687
2018-05-14T05:13:03.599Z,25.312
2018-05-14T05:14:04.246Z,25.125
2018-05-14T05:15:04.314Z,24.875
2018-05-14T05:16:03.625Z,25
2018-05-14T05:17:04.088Z,25.062
2018-05-14T05:18:03.539Z,25.562
2018-05-14T05:19:04.158Z,25.562
2018-05-14T05:20:03.563Z,25.937
2018-05-14T05:21:04.839Z,26.375
2018-05-14T05:22:03.630Z,26.437
2018-05-14T05:23:04.200Z,26.687
2018-05-14T05:24:03.775Z,26.5
2018-05-14T05:25:04.156Z,26.687
2018-05-14T05:26:03.900Z,26.75
2018-05-14T05:27:03.342Z,27.062
2018-05-14T05:28:03.578Z,27.312
2018-05-14T05:29:04.140Z,27.062
2018-05-14T05:30:03.495Z,26.687
2018-05-14T05:31:05.528Z,26.5
2018-05-14T05:32:03.626Z,26.687
2018-05-14T05:33:03.657Z,26.625
2018-05-14T05:34:03.933Z,26.312
2018-05-14T05:35:03.487Z,26.687
2018-05-14T05:36:03.984Z,27.062
2018-05-14T05:37:04.089Z,27.125
2018-05-14T05:38:03.580Z,27.437
2018-05-14T05:39:04.312Z,27.375
2018-05-14T05:40:04.128Z,27.375
2018-05-14T05:41:04.354Z,27.562
2018-05-14T05:42:03.750Z,27.812
2018-05-14T05:43:04.191Z,27.937
2018-05-14T05:44:03.652Z,27.437
2018-05-14T05:45:04.197Z,27.312
2018-05-14T05:46:03.536Z,27.437
2018-05-14T05:47:04.322Z,27.625
2018-05-14T05:48:03.829Z,27.75
2018-05-14T05:49:03.341Z,27.875
2018-05-14T05:50:03.522Z,28.312
2018-05-14T05:51:05.319Z,28.312
2018-05-14T05:52:03.604Z,28.312
2018-05-14T05:53:04.333Z,28.062
2018-05-14T05:54:03.597Z,28.187
2018-05-14T05:55:04.121Z,28.312
2018-05-14T05:56:03.511Z,28.375
2018-05-14T05:57:04.059Z,28.312
2018-05-14T05:58:04.025Z,27.75
2018-05-14T05:59:03.611Z,28
2018-05-14T06:00:04.329Z,28.187
2018-05-14T06:01:03.751Z,28.187
2018-05-14T06:02:04.049Z,28.312
2018-05-14T06:03:03.647Z,28.5
2018-05-14T06:04:03.842Z,28.875
2018-05-14T06:05:04.375Z,29.125
2018-05-14T06:06:03.699Z,29.312
2018-05-14T06:07:03.577Z,29.625
2018-05-14T06:08:04.068Z,29.687
2018-05-14T06:09:03.598Z,29.687
2018-05-14T06:10:03.790Z,29.687
2018-05-14T06:11:04.134Z,29.25
2018-05-14T06:12:03.541Z,29.5
2018-05-14T06:13:03.953Z,29.562
2018-05-14T06:14:03.638Z,29.625
2018-05-14T06:15:04.172Z,29.312
2018-05-14T06:16:03.802Z,29
2018-05-14T06:17:04.456Z,29.062
2018-05-14T06:18:03.927Z,29.5
2018-05-14T06:19:04.211Z,29.687
2018-05-14T06:20:03.636Z,29.437
2018-05-14T06:21:04.188Z,29.312
2018-05-14T06:22:03.784Z,29.125
2018-05-14T06:23:03.341Z,28.937
2018-05-14T06:24:03.468Z,29.125
2018-05-14T06:25:03.771Z,29.5
2018-05-14T06:26:04.145Z,29.625
2018-05-14T06:27:03.922Z,29.625
2018-05-14T06:28:03.689Z,29.812
2018-05-14T06:29:04.104Z,30.312
2018-05-14T06:30:03.491Z,30.25
2018-05-14T06:31:05.042Z,29.75
2018-05-14T06:32:04.276Z,30.062
2018-05-14T06:33:03.848Z,30.75
2018-05-14T06:34:04.142Z,30.812
2018-05-14T06:35:03.720Z,30.562
2018-05-14T06:36:03.698Z,30.375
2018-05-14T06:37:03.306Z,30.562
2018-05-14T06:38:03.752Z,31
2018-05-14T06:39:03.841Z,31.125
2018-05-14T06:40:03.696Z,31.5
2018-05-14T06:41:04.257Z,31.812
2018-05-14T06:42:03.789Z,31.937
2018-05-14T06:43:04.105Z,32
2018-05-14T06:44:03.412Z,31.687
2018-05-14T06:45:04.426Z,31.5
2018-05-14T06:46:05.222Z,31.875
2018-05-14T06:47:04.173Z,32.437
2018-05-14T06:48:03.672Z,32.812
2018-05-14T06:49:04.152Z,32.5
2018-05-14T06:50:03.570Z,32.187
2018-05-14T06:51:03.824Z,31.687
2018-05-14T06:52:03.257Z,31.25
2018-05-14T06:53:04.444Z,31.5
2018-05-14T06:54:03.752Z,31.375
2018-05-14T06:55:04.223Z,31.687
2018-05-14T06:56:04.094Z,31.937
2018-05-14T06:57:03.418Z,32.125
2018-05-14T06:58:03.812Z,31.687
2018-05-14T06:59:03.772Z,31.125
2018-05-14T07:00:04.253Z,31.562
2018-05-14T07:01:03.645Z,32.062
2018-05-14T07:02:03.340Z,32.687
2018-05-14T07:03:04.350Z,32.75
2018-05-14T07:04:03.515Z,33
2018-05-14T07:05:04.167Z,33.5
2018-05-14T07:06:03.726Z,33.125
2018-05-14T07:07:04.188Z,33
2018-05-14T07:08:03.520Z,33.5
2018-05-14T07:09:04.659Z,33.875
2018-05-14T07:10:03.850Z,33.375
2018-05-14T07:11:04.274Z,33.187
2018-05-14T07:12:03.509Z,33.062
2018-05-14T07:13:03.634Z,33.375
2018-05-14T07:14:04.219Z,32.937
2018-05-14T07:15:03.845Z,33.062
2018-05-14T07:16:04.118Z,33.125
2018-05-14T07:17:03.837Z,33.625
2018-05-14T07:18:03.958Z,33.812
2018-05-14T07:19:03.393Z,33.562
2018-05-14T07:20:03.967Z,33.25
2018-05-14T07:21:04.540Z,33.312
2018-05-14T07:22:03.935Z,33.437
2018-05-14T07:23:03.400Z,33.125
2018-05-14T07:24:03.896Z,32.562
2018-05-14T07:25:04.256Z,32.375
2018-05-14T07:26:03.597Z,32.75
2018-05-14T07:27:04.197Z,32.75
2018-05-14T07:28:03.797Z,33.5
2018-05-14T07:29:03.533Z,33.375
2018-05-14T07:30:04.082Z,33.437
2018-05-14T07:31:04.549Z,33.312
2018-05-14T07:32:03.744Z,33.437
2018-05-14T07:33:04.339Z,33.875
2018-05-14T07:34:03.740Z,33.562
2018-05-14T07:35:04.283Z,34
2018-05-14T07:36:04.833Z,33.25
2018-05-14T07:37:04.248Z,33.187
2018-05-14T07:38:03.908Z,33.625
2018-05-14T07:39:04.611Z,33.562
2018-05-14T07:40:03.808Z,33.25
2018-05-14T07:41:03.465Z,33.125
2018-05-14T07:42:03.868Z,33.062
2018-05-14T07:43:04.267Z,32.562
2018-05-14T07:44:04.969Z,32.187
2018-05-14T07:45:03.979Z,32.5
2018-05-14T07:46:04.300Z,32.375
2018-05-14T07:47:03.521Z,32.562
2018-05-14T07:48:04.130Z,32.812
2018-05-14T07:49:03.540Z,32.75
2018-05-14T07:50:03.982Z,32.812
2018-05-14T07:51:03.618Z,33.125
2018-05-14T07:52:04.089Z,32.687
2018-05-14T07:53:03.636Z,33.062
2018-05-14T07:54:03.658Z,33.062
2018-05-14T07:55:03.608Z,33.25
2018-05-14T07:56:05.353Z,33.187
2018-05-14T07:57:04.005Z,33.625
2018-05-14T07:58:03.812Z,33.375
2018-05-14T07:59:04.155Z,33.562
2018-05-14T08:00:04.127Z,33.437
2018-05-14T08:01:03.336Z,32.625
2018-05-14T08:02:03.501Z,32.25
2018-05-14T08:03:04.006Z,32.062
2018-05-14T08:04:03.567Z,32
2018-05-14T08:05:04.182Z,32.187
2018-05-14T08:06:04.372Z,32.187
2018-05-14T08:08:03.875Z,31.937
2018-05-14T08:09:03.551Z,32
2018-05-14T08:10:03.799Z,32.25
2018-05-14T08:11:04.161Z,32.75
2018-05-14T08:12:03.531Z,33.125
2018-05-14T08:13:03.953Z,32.937
2018-05-14T08:14:04.097Z,32.75
2018-05-14T08:15:03.558Z,32.875
2018-05-14T08:16:04.143Z,33.312
2018-05-14T08:17:03.933Z,33.125
2018-05-14T08:18:03.411Z,33.562
2018-05-14T08:19:03.832Z,33.687
2018-05-14T08:20:04.416Z,33.25
2018-05-14T08:21:03.695Z,32.875
2018-05-14T08:22:04.125Z,32.375
2018-05-14T08:23:03.645Z,32.812
2018-05-14T08:24:04.157Z,32.75
2018-05-14T08:25:03.665Z,32.937
2018-05-14T08:26:04.189Z,32.312
2018-05-14T08:27:03.694Z,32.5
2018-05-14T08:28:03.969Z,32.125
2018-05-14T08:29:03.812Z,32.25
2018-05-14T08:30:03.597Z,32.437
2018-05-14T08:31:04.375Z,32.875
2018-05-14T08:32:04.073Z,33
2018-05-14T08:33:03.599Z,32.875
2018-05-14T08:34:03.544Z,33.187
2018-05-14T08:35:04.018Z,32.812
2018-05-14T08:36:03.452Z,32.875
2018-05-14T08:37:03.561Z,32.812
2018-05-14T08:38:04.210Z,32.625
2018-05-14T08:39:04.294Z,32.75
2018-05-14T08:40:03.956Z,32.687
2018-05-14T08:41:03.539Z,32.75
2018-05-14T08:42:03.960Z,32.687
2018-05-14T08:43:03.844Z,32.5
2018-05-14T08:44:03.327Z,32.625
2018-05-14T08:45:04.904Z,33.187
2018-05-14T08:46:05.230Z,33.5
2018-05-14T08:47:04.187Z,33
2018-05-14T08:48:03.710Z,33.375
2018-05-14T08:49:04.215Z,34.062
2018-05-14T08:50:03.723Z,33.5
2018-05-14T08:51:04.338Z,32.937
2018-05-14T08:52:03.494Z,32.437
2018-05-14T08:53:04.087Z,32.125
2018-05-14T08:54:03.598Z,32.312
2018-05-14T08:55:04.095Z,31.562
2018-05-14T08:56:03.613Z,31.812
2018-05-14T08:57:03.898Z,31.875
2018-05-14T08:58:03.804Z,31.812
2018-05-14T08:59:04.289Z,31.687
2018-05-14T09:00:04.141Z,31.625
2018-05-14T09:01:03.462Z,31.937
2018-05-14T09:02:03.891Z,32.5
2018-05-14T09:03:03.583Z,32.25
2018-05-14T09:04:03.939Z,32.125
2018-05-14T09:05:03.667Z,31.937
2018-05-14T09:06:04.847Z,31.937
2018-05-14T09:07:03.993Z,31.75
2018-05-14T09:08:03.453Z,31.5
2018-05-14T09:09:04.510Z,32.062
2018-05-14T09:10:03.886Z,31.875
2018-05-14T09:11:03.360Z,32.125
2018-05-14T09:12:04.096Z,32.25
2018-05-14T09:13:03.648Z,31.937
2018-05-14T09:14:04.126Z,32.25
2018-05-14T09:15:03.800Z,32.125
2018-05-14T09:16:04.877Z,32
2018-05-14T09:17:04.253Z,32
2018-05-14T09:18:03.643Z,32.062
2018-05-14T09:19:04.233Z,31.75
2018-05-14T09:20:04.096Z,31.625
2018-05-14T09:21:03.486Z,30.937
2018-05-14T09:22:03.935Z,31.187
2018-05-14T09:23:03.325Z,31.125
2018-05-14T09:24:03.561Z,31.187
2018-05-14T09:25:04.096Z,31.562
2018-05-14T09:26:04.985Z,32.187
2018-05-14T09:27:04.273Z,32.25
2018-05-14T09:28:03.654Z,32.875
2018-05-14T09:29:04.130Z,32.437
2018-05-14T09:30:03.599Z,32.375
2018-05-14T09:31:03.940Z,32.312
2018-05-14T09:32:03.406Z,32.687
2018-05-14T09:33:03.369Z,32.875
2018-05-14T09:34:03.471Z,32.437
2018-05-14T09:35:03.784Z,31.75
2018-05-14T09:36:04.254Z,31.437
2018-05-14T09:37:03.883Z,31.312
2018-05-14T09:38:03.430Z,31.125
2018-05-14T09:39:04.348Z,30.875
2018-05-14T09:40:04.251Z,30.687
2018-05-14T09:41:03.478Z,31.062
2018-05-14T09:42:03.913Z,31.375
2018-05-14T09:43:04.376Z,31.625
2018-05-14T09:44:03.579Z,31.812
2018-05-14T09:45:04.184Z,32.375
2018-05-14T09:46:03.812Z,31.937
2018-05-14T09:47:03.721Z,31.937
2018-05-14T09:48:04.148Z,31.937
2018-05-14T09:49:03.694Z,31.875
2018-05-14T09:50:04.033Z,31.375
2018-05-14T09:51:05.229Z,31.75
2018-05-14T09:52:03.463Z,32.187
2018-05-14T09:53:03.896Z,32
2018-05-14T09:54:03.422Z,31.687
2018-05-14T09:55:03.615Z,31.562
2018-05-14T09:56:03.600Z,31.312
2018-05-14T09:57:04.059Z,31.375
2018-05-14T09:58:03.411Z,31.375
2018-05-14T09:59:03.851Z,31
2018-05-14T10:00:04.597Z,31.062
2018-05-14T10:01:04.671Z,31.062
2018-05-14T10:02:03.987Z,31.5
2018-05-14T10:03:03.417Z,31.375
2018-05-14T10:04:04.031Z,30.875
2018-05-14T10:05:03.715Z,31.187
2018-05-14T10:06:04.086Z,31.062
2018-05-14T10:07:03.549Z,31
2018-05-14T10:08:04.011Z,30.75
2018-05-14T10:09:03.733Z,30.812
2018-05-14T10:10:04.010Z,30.437
2018-05-14T10:11:03.879Z,30.312
2018-05-14T10:12:04.299Z,30.625
2018-05-14T10:13:03.827Z,30.5
2018-05-14T10:14:04.357Z,30.687
2018-05-14T10:15:04.036Z,31.062
2018-05-14T10:16:03.526Z,30.875
2018-05-14T10:17:04.308Z,30.937
2018-05-14T10:18:03.977Z,30.875
2018-05-14T10:19:03.474Z,31.062
2018-05-14T10:20:03.993Z,31.062
2018-05-14T10:21:03.456Z,30.875
2018-05-14T10:22:03.848Z,30.437
2018-05-14T10:23:03.459Z,30.062
2018-05-14T10:24:03.962Z,29.875
2018-05-14T10:25:03.500Z,29.875
2018-05-14T10:26:03.939Z,30.187
2018-05-14T10:27:03.691Z,30.125
2018-05-14T10:28:03.975Z,30
2018-05-14T10:29:04.033Z,29.812
2018-05-14T10:30:03.659Z,29.562
2018-05-14T10:31:04.690Z,30
2018-05-14T10:32:04.334Z,29.812
2018-05-14T10:33:03.582Z,29.562
2018-05-14T10:34:03.803Z,29.437
2018-05-14T10:35:03.757Z,29.625
2018-05-14T10:36:04.099Z,29.625
2018-05-14T10:37:04.159Z,29.375
2018-05-14T10:38:03.628Z,29.75
2018-05-14T10:39:04.005Z,29.375
2018-05-14T10:40:03.774Z,29.562
2018-05-14T10:41:04.673Z,29.687
2018-05-14T10:42:04.362Z,29.75
2018-05-14T10:43:04.535Z,29.562
2018-05-14T10:44:03.633Z,29.812
2018-05-14T10:45:04.342Z,29.75
2018-05-14T10:46:03.915Z,29.562
2018-05-14T10:47:03.394Z,29.687
2018-05-14T10:48:03.904Z,29.75
2018-05-14T10:49:04.297Z,29.75
2018-05-14T10:50:03.576Z,29.875
2018-05-14T10:51:04.089Z,30.375
2018-05-14T10:52:04.052Z,30.437
2018-05-14T10:53:03.424Z,30.625
2018-05-14T10:54:03.441Z,30.187
2018-05-14T10:55:03.956Z,29.75
2018-05-14T10:56:03.806Z,29.687
2018-05-14T10:57:03.374Z,29.687
2018-05-14T10:58:04.091Z,29.562
2018-05-14T10:59:03.758Z,29.25
2018-05-14T11:00:05.049Z,29.312
2018-05-14T11:01:03.342Z,29.937
2018-05-14T11:02:03.839Z,29.937
2018-05-14T11:03:03.281Z,30
2018-05-14T11:04:03.904Z,30.375
2018-05-14T11:05:04.174Z,30.25
2018-05-14T11:06:03.640Z,29.687
2018-05-14T11:07:04.022Z,29.375
2018-05-14T11:08:03.457Z,29.812
2018-05-14T11:09:04.349Z,30
2018-05-14T11:10:03.987Z,30
2018-05-14T11:11:03.412Z,29.812
2018-05-14T11:12:03.526Z,29.312
2018-05-14T11:13:03.926Z,29.437
2018-05-14T11:14:04.210Z,29.687
2018-05-14T11:15:04.044Z,29.812
2018-05-14T11:16:03.368Z,29.687
2018-05-14T11:17:04.029Z,29.812
2018-05-14T11:18:03.381Z,29.812
2018-05-14T11:19:03.745Z,29.75
2018-05-14T11:20:04.193Z,30.125
2018-05-14T11:21:04.166Z,29.875
2018-05-14T11:22:03.433Z,29.75
2018-05-14T11:23:03.827Z,29.812
2018-05-14T11:24:03.616Z,29.937
2018-05-14T11:25:04.047Z,30.187
2018-05-14T11:26:03.534Z,30.062
2018-05-14T11:27:03.993Z,30
2018-05-14T11:28:03.348Z,30.125
2018-05-14T11:29:03.828Z,29.937
2018-05-14T11:30:03.457Z,30
2018-05-14T11:31:03.935Z,29.875
2018-05-14T11:32:03.642Z,30
2018-05-14T11:33:04.230Z,30
2018-05-14T11:34:03.730Z,29.687
2018-05-14T11:35:04.175Z,29.5
2018-05-14T11:36:04.269Z,29
2018-05-14T11:37:03.615Z,28.687
2018-05-14T11:38:04.745Z,28.75
2018-05-14T11:39:04.374Z,28.562
2018-05-14T11:40:03.934Z,28.625
2018-05-14T11:41:03.938Z,28.5
2018-05-14T11:42:03.998Z,28.437
2018-05-14T11:43:03.492Z,28.5
2018-05-14T11:44:03.981Z,28.625
2018-05-14T11:45:03.583Z,28.625
2018-05-14T11:46:03.943Z,28.562
2018-05-14T11:47:04.392Z,28.75
2018-05-14T11:48:03.917Z,28.75
2018-05-14T11:49:03.413Z,28.5
2018-05-14T11:50:04.426Z,28.562
2018-05-14T11:51:04.292Z,28.937
2018-05-14T11:52:04.254Z,29.25
2018-05-14T11:53:03.649Z,29.312
2018-05-14T11:54:04.103Z,29.375
2018-05-14T11:55:03.989Z,29.125
2018-05-14T11:56:03.558Z,29.062
2018-05-14T11:57:04.180Z,29.125
2018-05-14T11:58:03.694Z,28.437
2018-05-14T11:59:04.081Z,28.187
2018-05-14T12:00:03.904Z,28.187
2018-05-14T12:01:04.092Z,27.937
2018-05-14T12:02:03.499Z,27.75
2018-05-14T12:03:03.964Z,27.875
2018-05-14T12:04:04.032Z,28
2018-05-14T12:05:03.766Z,28
2018-05-14T12:06:04.108Z,27.687
2018-05-14T12:07:03.477Z,27.687
2018-05-14T12:08:04.034Z,27.687
2018-05-14T12:09:03.651Z,27.75
2018-05-14T12:10:03.635Z,27.375
2018-05-14T12:11:04.081Z,27.687
2018-05-14T12:12:03.474Z,27.812
2018-05-14T12:13:04.010Z,27.687
2018-05-14T12:14:04.153Z,27.687
2018-05-14T12:15:03.680Z,28.125
2018-05-14T12:16:04.553Z,28.125
2018-05-14T12:17:03.842Z,28
2018-05-14T12:18:03.523Z,28
2018-05-14T12:19:04.023Z,27.687
2018-05-14T12:20:03.441Z,27.812
2018-05-14T12:21:03.494Z,27.562
2018-05-14T12:22:04.955Z,27.687
2018-05-14T12:23:04.220Z,27.5
2018-05-14T12:24:03.625Z,27.875
2018-05-14T12:25:04.173Z,27.875
2018-05-14T12:26:03.333Z,27.562
2018-05-14T12:27:03.844Z,27.5
2018-05-14T12:28:03.539Z,27.625
2018-05-14T12:29:03.954Z,27.687
2018-05-14T12:30:03.565Z,27.5
2018-05-14T12:31:04.668Z,27.25
2018-05-14T12:32:03.920Z,27.25
2018-05-14T12:33:03.568Z,27.187
2018-05-14T12:34:04.084Z,27.375
2018-05-14T12:35:04.411Z,27.187
2018-05-14T12:36:03.727Z,27.062
2018-05-14T12:37:03.838Z,26.875
2018-05-14T12:38:04.273Z,26.75
2018-05-14T12:39:04.161Z,27.125
2018-05-14T12:40:03.740Z,27.5
2018-05-14T12:41:03.830Z,27.375
2018-05-14T12:42:04.182Z,27.5